sensor_id;sensor_type;location;lat;lon;timestamp;temperature;humidity
42885;DHT22;28534;48.100;11.584;2022-07-22T00:05:54;25.00;60.90
42885;DHT22;28534;48.100;11.584;2022-07-22T00:15:57;24.90;60.80
42885;DHT22;28534;48.100;11.584;2022-07-22T00:25:59;24.80;60.60
42885;DHT22;28534;48.100;11.584;2022-07-22T00:36:03;24.90;60.20
42885;DHT22;28534;48.100;11.584;2022-07-22T00:46:05;24.80;60.00
42885;DHT22;28534;48.100;11.584;2022-07-22T00:56:08;24.90;60.70
42885;DHT22;28534;48.100;11.584;2022-07-22T01:06:11;24.80;60.50
42885;DHT22;28534;48.100;11.584;2022-07-22T01:16:15;24.80;59.80
42885;DHT22;28534;48.100;11.584;2022-07-22T01:26:18;24.70;59.60
42885;DHT22;28534;48.100;11.584;2022-07-22T01:36:21;24.70;59.40
42885;DHT22;28534;48.100;11.584;2022-07-22T01:46:24;24.60;59.30
42885;DHT22;28534;48.100;11.584;2022-07-22T01:56:26;24.60;59.30
42885;DHT22;28534;48.100;11.584;2022-07-22T02:06:29;24.60;59.20
42885;DHT22;28534;48.100;11.584;2022-07-22T02:16:31;24.70;59.60
42885;DHT22;28534;48.100;11.584;2022-07-22T02:26:35;24.70;58.70
42885;DHT22;28534;48.100;11.584;2022-07-22T02:36:37;24.70;58.40
42885;DHT22;28534;48.100;11.584;2022-07-22T02:46:40;24.70;58.30
42885;DHT22;28534;48.100;11.584;2022-07-22T02:56:41;24.70;58.10
42885;DHT22;28534;48.100;11.584;2022-07-22T03:06:45;24.60;57.90
42885;DHT22;28534;48.100;11.584;2022-07-22T03:16:46;24.60;57.80
42885;DHT22;28534;48.100;11.584;2022-07-22T03:26:49;24.60;57.60
42885;DHT22;28534;48.100;11.584;2022-07-22T03:36:52;24.60;57.50
42885;DHT22;28534;48.100;11.584;2022-07-22T03:46:55;24.60;57.30
42885;DHT22;28534;48.100;11.584;2022-07-22T03:56:56;24.60;57.20
42885;DHT22;28534;48.100;11.584;2022-07-22T04:07:00;24.50;57.00
42885;DHT22;28534;48.100;11.584;2022-07-22T04:17:01;24.60;56.90
42885;DHT22;28534;48.100;11.584;2022-07-22T04:27:04;24.50;56.70
42885;DHT22;28534;48.100;11.584;2022-07-22T04:37:06;24.50;57.00
42885;DHT22;28534;48.100;11.584;2022-07-22T04:47:10;24.50;57.10
42885;DHT22;28534;48.100;11.584;2022-07-22T04:57:11;24.50;57.00
42885;DHT22;28534;48.100;11.584;2022-07-22T05:07:15;24.50;57.20
42885;DHT22;28534;48.100;11.584;2022-07-22T05:17:17;24.50;58.00
42885;DHT22;28534;48.100;11.584;2022-07-22T05:27:20;24.60;59.30
42885;DHT22;28534;48.100;11.584;2022-07-22T05:37:22;24.60;59.30
42885;DHT22;28534;48.100;11.584;2022-07-22T05:47:25;24.70;60.80
42885;DHT22;28534;48.100;11.584;2022-07-22T05:57:27;24.80;60.40
42885;DHT22;28534;48.100;11.584;2022-07-22T06:07:30;24.80;60.50
42885;DHT22;28534;48.100;11.584;2022-07-22T06:17:32;24.80;60.40
42885;DHT22;28534;48.100;11.584;2022-07-22T06:27:35;24.90;60.50
42885;DHT22;28534;48.100;11.584;2022-07-22T06:37:37;24.90;60.80
42885;DHT22;28534;48.100;11.584;2022-07-22T06:47:40;25.00;60.80
42885;DHT22;28534;48.100;11.584;2022-07-22T06:57:42;25.00;60.60
42885;DHT22;28534;48.100;11.584;2022-07-22T07:07:45;24.90;60.70
42885;DHT22;28534;48.100;11.584;2022-07-22T07:17:47;25.00;60.70
42885;DHT22;28534;48.100;11.584;2022-07-22T07:27:50;25.00;61.50
42885;DHT22;28534;48.100;11.584;2022-07-22T07:37:54;25.00;60.70
42885;DHT22;28534;48.100;11.584;2022-07-22T07:47:57;25.10;61.00
42885;DHT22;28534;48.100;11.584;2022-07-22T07:57:59;25.10;60.90
42885;DHT22;28534;48.100;11.584;2022-07-22T08:08:03;25.10;60.80
42885;DHT22;28534;48.100;11.584;2022-07-22T08:18:04;25.10;61.30
42885;DHT22;28534;48.100;11.584;2022-07-22T08:28:08;25.10;61.80
42885;DHT22;28534;48.100;11.584;2022-07-22T08:38:09;25.10;61.60
42885;DHT22;28534;48.100;11.584;2022-07-22T08:48:13;25.20;61.50
42885;DHT22;28534;48.100;11.584;2022-07-22T08:58:15;25.20;61.50
42885;DHT22;28534;48.100;11.584;2022-07-22T09:08:19;25.20;61.20
42885;DHT22;28534;48.100;11.584;2022-07-22T09:18:21;25.20;61.20
42885;DHT22;28534;48.100;11.584;2022-07-22T09:28:24;25.20;61.90
42885;DHT22;28534;48.100;11.584;2022-07-22T09:38:28;25.20;61.80
42885;DHT22;28534;48.100;11.584;2022-07-22T09:48:33;25.20;61.80
42885;DHT22;28534;48.100;11.584;2022-07-22T09:58:35;25.30;62.00
42885;DHT22;28534;48.100;11.584;2022-07-22T10:08:38;25.30;62.30
42885;DHT22;28534;48.100;11.584;2022-07-22T10:18:44;25.30;62.90
42885;DHT22;28534;48.100;11.584;2022-07-22T10:28:48;25.30;62.10
42885;DHT22;28534;48.100;11.584;2022-07-22T10:39:03;25.40;62.20
42885;DHT22;28534;48.100;11.584;2022-07-22T10:49:07;25.40;62.30
42885;DHT22;28534;48.100;11.584;2022-07-22T10:59:12;25.40;62.60
42885;DHT22;28534;48.100;11.584;2022-07-22T11:09:18;25.40;63.10
42885;DHT22;28534;48.100;11.584;2022-07-22T11:19:22;25.40;63.70
42885;DHT22;28534;48.100;11.584;2022-07-22T11:29:27;25.50;63.30
42885;DHT22;28534;48.100;11.584;2022-07-22T11:39:30;25.50;62.80
42885;DHT22;28534;48.100;11.584;2022-07-22T11:49:35;25.50;63.30
42885;DHT22;28534;48.100;11.584;2022-07-22T11:59:37;25.50;62.20
42885;DHT22;28534;48.100;11.584;2022-07-22T12:09:41;25.50;62.00
42885;DHT22;28534;48.100;11.584;2022-07-22T12:19:43;25.50;62.10
42885;DHT22;28534;48.100;11.584;2022-07-22T12:29:47;25.50;63.30
42885;DHT22;28534;48.100;11.584;2022-07-22T12:39:57;25.50;64.30
42885;DHT22;28534;48.100;11.584;2022-07-22T13:00:30;25.60;64.50
42885;DHT22;28534;48.100;11.584;2022-07-22T13:10:33;25.60;63.60
42885;DHT22;28534;48.100;11.584;2022-07-22T13:20:36;25.70;63.10
42885;DHT22;28534;48.100;11.584;2022-07-22T13:30:38;25.70;63.20
42885;DHT22;28534;48.100;11.584;2022-07-22T13:40:41;25.70;62.90
42885;DHT22;28534;48.100;11.584;2022-07-22T13:50:50;25.80;61.40
42885;DHT22;28534;48.100;11.584;2022-07-22T14:00:53;25.80;61.20
42885;DHT22;28534;48.100;11.584;2022-07-22T14:10:55;25.80;62.00
42885;DHT22;28534;48.100;11.584;2022-07-22T14:20:58;25.80;61.70
42885;DHT22;28534;48.100;11.584;2022-07-22T14:31:00;25.80;61.50
42885;DHT22;28534;48.100;11.584;2022-07-22T14:41:03;25.90;61.30
42885;DHT22;28534;48.100;11.584;2022-07-22T14:51:06;26.00;61.10
42885;DHT22;28534;48.100;11.584;2022-07-22T15:01:09;26.00;60.80
42885;DHT22;28534;48.100;11.584;2022-07-22T15:11:11;26.00;60.70
42885;DHT22;28534;48.100;11.584;2022-07-22T15:21:14;26.10;60.60
42885;DHT22;28534;48.100;11.584;2022-07-22T15:31:16;26.10;60.50
42885;DHT22;28534;48.100;11.584;2022-07-22T15:41:20;26.20;61.70
42885;DHT22;28534;48.100;11.584;2022-07-22T15:51:22;26.30;64.50
42885;DHT22;28534;48.100;11.584;2022-07-22T16:01:25;26.30;65.20
42885;DHT22;28534;48.100;11.584;2022-07-22T16:11:27;26.30;65.30
42885;DHT22;28534;48.100;11.584;2022-07-22T16:21:30;26.50;66.60
42885;DHT22;28534;48.100;11.584;2022-07-22T16:31:32;26.50;65.40
42885;DHT22;28534;48.100;11.584;2022-07-22T16:41:36;26.50;65.10
42885;DHT22;28534;48.100;11.584;2022-07-22T16:51:38;26.50;64.40
42885;DHT22;28534;48.100;11.584;2022-07-22T17:01:41;26.50;64.30
42885;DHT22;28534;48.100;11.584;2022-07-22T17:11:43;26.50;64.20
42885;DHT22;28534;48.100;11.584;2022-07-22T17:21:46;26.50;64.30
42885;DHT22;28534;48.100;11.584;2022-07-22T17:31:48;26.50;64.00
42885;DHT22;28534;48.100;11.584;2022-07-22T17:41:51;26.50;63.90
42885;DHT22;28534;48.100;11.584;2022-07-22T17:51:53;26.50;63.70
42885;DHT22;28534;48.100;11.584;2022-07-22T18:01:56;26.50;63.60
42885;DHT22;28534;48.100;11.584;2022-07-22T18:11:58;26.50;63.60
42885;DHT22;28534;48.100;11.584;2022-07-22T18:22:01;26.50;63.60
42885;DHT22;28534;48.100;11.584;2022-07-22T18:32:03;26.40;63.50
42885;DHT22;28534;48.100;11.584;2022-07-22T18:42:07;26.30;63.40
42885;DHT22;28534;48.100;11.584;2022-07-22T18:52:09;26.30;63.60
42885;DHT22;28534;48.100;11.584;2022-07-22T19:02:12;26.30;63.80
42885;DHT22;28534;48.100;11.584;2022-07-22T19:12:14;26.20;63.60
42885;DHT22;28534;48.100;11.584;2022-07-22T19:22:17;26.20;63.40
42885;DHT22;28534;48.100;11.584;2022-07-22T19:32:21;26.20;62.70
42885;DHT22;28534;48.100;11.584;2022-07-22T19:42:24;26.10;61.20
42885;DHT22;28534;48.100;11.584;2022-07-22T19:52:26;26.20;60.40
42885;DHT22;28534;48.100;11.584;2022-07-22T20:02:29;26.10;60.70
42885;DHT22;28534;48.100;11.584;2022-07-22T20:12:31;26.10;60.50
42885;DHT22;28534;48.100;11.584;2022-07-22T20:22:34;26.10;61.00
42885;DHT22;28534;48.100;11.584;2022-07-22T20:32:36;26.00;60.60
42885;DHT22;28534;48.100;11.584;2022-07-22T20:42:41;25.90;60.70
42885;DHT22;28534;48.100;11.584;2022-07-22T20:52:43;25.90;60.10
42885;DHT22;28534;48.100;11.584;2022-07-22T21:02:47;25.90;60.30
42885;DHT22;28534;48.100;11.584;2022-07-22T21:12:49;25.90;60.90
42885;DHT22;28534;48.100;11.584;2022-07-22T21:22:52;25.90;60.90
42885;DHT22;28534;48.100;11.584;2022-07-22T21:32:54;26.00;61.00
42885;DHT22;28534;48.100;11.584;2022-07-22T21:42:57;25.90;61.20
42885;DHT22;28534;48.100;11.584;2022-07-22T21:52:59;25.90;60.70
42885;DHT22;28534;48.100;11.584;2022-07-22T22:03:02;25.70;60.30
42885;DHT22;28534;48.100;11.584;2022-07-22T22:13:03;25.70;60.10
42885;DHT22;28534;48.100;11.584;2022-07-22T22:23:07;25.70;59.30
42885;DHT22;28534;48.100;11.584;2022-07-22T22:33:08;25.70;58.90
42885;DHT22;28534;48.100;11.584;2022-07-22T22:43:12;25.70;58.80
42885;DHT22;28534;48.100;11.584;2022-07-22T22:53:13;25.70;59.30
42885;DHT22;28534;48.100;11.584;2022-07-22T23:03:17;25.60;58.90
42885;DHT22;28534;48.100;11.584;2022-07-22T23:13:18;25.60;58.50
42885;DHT22;28534;48.100;11.584;2022-07-22T23:23:23;25.60;58.20
42885;DHT22;28534;48.100;11.584;2022-07-22T23:33:25;25.50;58.10
42885;DHT22;28534;48.100;11.584;2022-07-22T23:43:28;25.50;58.30
42885;DHT22;28534;48.100;11.584;2022-07-22T23:53:30;25.50;57.90
